Safford, AZ

7:16 PM MST on February 10, 2016 (GMT -0700)
Ramada Estates | | Change Station
CLOSE
Current Station
Personal Weather Station
Location: Safford, AZ
Elevation: 2976 ft
Nearby Weather Stations

Elev 2976 ft 32.82 °N, 109.72 °W | Updated 6 seconds ago

Clear
Clear
58.1 °F
Feels Like 58.1 °F
N
0.4
Wind Variable Wind from SE
Gusts 2.5 mph

Today
High -- | Low -- °F
--% Chance of Precip.
Yesterday
High -- | Low -- °F
Precip. -- in
Pressure 30.16 in
Visibility 10.0 miles
Clouds Clear
Dew Point 29 °F
Humidity 33%
Rainfall 0.00 in
Snow Depth Not available.
7:07 AM 5:59 PM
Waxing Crescent, 8% visible
METAR KSAD 110151Z AUTO 00000KT 10SM CLR 14/M06 A3020 RMK AO2 SLP213 T01391061
Pressure 30.16 in
Visibility 10.0 miles
Clouds Clear
Dew Point 29 °F
Humidity 33%
Rainfall 0.00 in
Snow Depth Not available.
7:07 AM 5:59 PM
Waxing Crescent, 8% visible
METAR KSAD 110151Z AUTO 00000KT 10SM CLR 14/M06 A3020 RMK AO2 SLP213 T01391061

10-Day Weather Forecast

Almanac

Astronomy

Feb. 10, 2016 Rise Set
Actual Time
Civil Twilight
Nautical Twilight
Astronomical Twilight
Moon
Length of Visible Light
Length of Day
Tomorrow will be .
, % of the Moon is Illuminated

Today's Extremes

State Highs State Lows

Community

WunderPhotos

Upload Photos

1,891,973 photos uploaded!

WunderBlog® & News

Nearby

Air Quality

  Air Quality AQ Index Pollutant
Not available.

Snow Depth

Station Depth Elevation

Earthquake Activity

City Distance Mag. Time & Date
Minimum magnitude displayed is 2.5.

Coastal Water Temperatures

Place Temperature

Stations

Nearby Weather Stations

Station Location Temp. Windchill Dew Point Humidity Wind Precip. Elev Updated Type
                   

Watches & Warnings

There are currently no watches in effect.